createdAt,value
2023-05-01T00:01:57.360Z,101213.19
2023-05-01T00:04:26.757Z,101217.52
2023-05-01T00:06:55.565Z,101219.73
2023-05-01T00:09:24.269Z,101219.86
2023-05-01T00:11:52.926Z,101225.18
2023-05-01T00:14:21.762Z,101217.98
2023-05-01T00:16:50.629Z,101217.44
2023-05-01T00:19:19.299Z,101220.71
2023-05-01T00:21:52.716Z,101227.58
2023-05-01T00:24:21.371Z,101232.70
2023-05-01T00:26:50.361Z,101238.86
2023-05-01T00:29:19.983Z,101243.69
2023-05-01T00:31:48.688Z,101247.29
2023-05-01T00:34:17.644Z,101249.17
2023-05-01T00:36:48.039Z,101257.95
2023-05-01T00:39:18.128Z,101255.27
2023-05-01T00:41:46.782Z,101258.95
2023-05-01T00:44:15.665Z,101254.99
2023-05-01T00:46:44.796Z,101256.92
2023-05-01T00:49:13.981Z,101257.98
2023-05-01T00:51:43.372Z,101257.10
2023-05-01T00:54:11.846Z,101257.45
2023-05-01T00:56:40.434Z,101258.41
2023-05-01T00:59:09.438Z,101260.73
2023-05-01T01:01:38.375Z,101263.40
2023-05-01T01:04:07.146Z,101262.39
2023-05-01T01:07:09.529Z,101258.94
2023-05-01T01:09:41.132Z,101263.30
2023-05-01T01:12:42.681Z,101263.66
2023-05-01T01:15:19.253Z,101268.88
2023-05-01T01:17:59.868Z,101269.92
2023-05-01T01:20:36.586Z,101273.75
2023-05-01T01:23:04.988Z,101275.49
2023-05-01T01:26:07.628Z,101278.29
2023-05-01T01:28:42.123Z,101279.52
2023-05-01T01:31:14.720Z,101280.73
2023-05-01T01:34:02.223Z,101283.86
2023-05-01T01:36:51.755Z,101287.17
2023-05-01T01:39:50.132Z,101289.24
2023-05-01T01:42:51.691Z,101293.61
2023-05-01T01:45:24.324Z,101294.13
2023-05-01T01:47:55.048Z,101292.73
2023-05-01T01:50:27.590Z,101298.13
2023-05-01T01:53:04.053Z,101300.92
2023-05-01T01:55:36.624Z,101301.80
2023-05-01T01:58:07.358Z,101307.20
2023-05-01T02:00:37.006Z,101305.97
2023-05-01T02:03:06.850Z,101308.06
2023-05-01T02:05:36.588Z,101314.68
2023-05-01T02:08:06.097Z,101311.54
2023-05-01T02:10:36.400Z,101312.59
2023-05-01T02:13:06.237Z,101313.98
2023-05-01T02:15:35.549Z,101313.98
2023-05-01T02:18:06.868Z,101316.08
2023-05-01T02:20:38.145Z,101318.52
2023-05-01T02:23:08.236Z,101322.52
2023-05-01T02:25:39.716Z,101321.13
2023-05-01T02:28:13.237Z,101325.31
2023-05-01T02:30:42.704Z,101327.23
2023-05-01T02:33:11.688Z,101333.84
2023-05-01T02:35:44.809Z,101334.55
2023-05-01T02:38:17.275Z,101336.98
2023-05-01T02:40:57.551Z,101337.88
2023-05-01T02:43:28.909Z,101343.27
2023-05-01T02:45:59.384Z,101344.15
2023-05-01T02:48:29.390Z,101346.06
2023-05-01T02:50:59.301Z,101348.85
2023-05-01T02:53:29.860Z,101351.82
2023-05-01T02:56:05.201Z,101354.95
2023-05-01T02:58:35.130Z,101352.67
2023-05-01T03:01:03.724Z,101358.95
2023-05-01T03:03:32.809Z,101363.13
2023-05-01T03:06:01.943Z,101365.57
2023-05-01T03:08:32.315Z,101365.91
2023-05-01T03:11:05.833Z,101367.66
2023-05-01T03:13:35.550Z,101367.31
2023-05-01T03:16:04.931Z,101368.36
2023-05-01T03:18:33.623Z,101371.16
2023-05-01T03:21:02.710Z,101374.11
2023-05-01T03:23:31.998Z,101375.52
2023-05-01T03:26:00.805Z,101380.92
2023-05-01T03:28:29.601Z,101384.40
2023-05-01T03:30:58.271Z,101389.10
2023-05-01T03:33:28.056Z,101386.84
2023-05-01T03:36:04.757Z,101386.83
2023-05-01T03:38:34.456Z,101385.27
2023-05-01T03:41:12.383Z,101391.55
2023-05-01T03:43:44.031Z,101395.38
2023-05-01T03:46:27.673Z,101403.21
2023-05-01T03:48:57.164Z,101407.05
2023-05-01T03:51:27.397Z,101413.33
2023-05-01T03:53:59.164Z,101414.73
2023-05-01T03:56:35.915Z,101422.75
2023-05-01T03:59:05.272Z,101422.56
2023-05-01T04:01:35.195Z,101422.73
2023-05-01T04:04:04.559Z,101430.59
2023-05-01T04:06:34.182Z,101430.59
2023-05-01T04:09:03.880Z,101433.38
2023-05-01T04:11:32.808Z,101434.25
2023-05-01T04:14:01.953Z,101438.95
2023-05-01T04:16:31.390Z,101445.58
2023-05-01T04:19:00.165Z,101452.55
2023-05-01T04:21:29.329Z,101453.08
2023-05-01T04:23:58.822Z,101450.46
2023-05-01T04:26:27.718Z,101452.04
2023-05-01T04:28:56.412Z,101458.48
2023-05-01T04:31:26.642Z,101461.45
2023-05-01T04:33:57.188Z,101465.45
2023-05-01T04:36:26.045Z,101467.90
2023-05-01T04:38:54.935Z,101466.50
2023-05-01T04:41:24.444Z,101470.16
2023-05-01T04:43:53.219Z,101474.34
2023-05-01T04:46:22.234Z,101483.05
2023-05-01T04:48:51.727Z,101489.87
2023-05-01T04:51:21.027Z,101493.19
2023-05-01T04:53:50.113Z,101495.27
2023-05-01T04:56:23.320Z,101500.85
2023-05-01T04:58:54.712Z,101507.48
2023-05-01T05:01:25.835Z,101510.45
2023-05-01T05:03:55.343Z,101513.41
2023-05-01T05:06:24.495Z,101517.43
2023-05-01T05:08:54.642Z,101517.96
2023-05-01T05:11:23.120Z,101520.91
2023-05-01T05:13:53.157Z,101526.83
2023-05-01T05:16:21.926Z,101531.02
2023-05-01T05:18:52.849Z,101535.73
2023-05-01T05:21:21.642Z,101541.48
2023-05-01T05:23:53.836Z,101543.59
2023-05-01T05:26:23.656Z,101541.14
2023-05-01T05:28:52.528Z,101541.30
2023-05-01T05:31:21.761Z,101548.98
2023-05-01T05:33:50.713Z,101551.25
2023-05-01T05:36:20.360Z,101557.35
2023-05-01T05:38:49.613Z,101562.59
2023-05-01T05:41:20.769Z,101568.19
2023-05-01T05:43:50.263Z,101574.98
2023-05-01T05:46:18.849Z,101580.75
2023-05-01T05:48:48.244Z,101577.08
2023-05-01T05:51:17.339Z,101592.79
2023-05-01T05:53:45.918Z,101585.80
2023-05-01T05:56:14.806Z,101589.81
2023-05-01T05:58:44.427Z,101594.16
2023-05-01T06:01:13.003Z,101592.23
2023-05-01T06:03:41.714Z,101596.94
2023-05-01T06:06:10.644Z,101595.20
2023-05-01T06:08:41.016Z,101601.46
2023-05-01T06:11:12.452Z,101603.40
2023-05-01T06:13:41.252Z,101600.77
2023-05-01T06:16:10.464Z,101607.75
2023-05-01T06:18:38.923Z,101603.02
2023-05-01T06:21:08.008Z,101610.17
2023-05-01T06:23:36.929Z,101606.15
2023-05-01T06:26:23.659Z,101608.40
2023-05-01T06:28:52.555Z,101603.33
2023-05-01T06:31:21.897Z,101604.16
2023-05-01T06:33:56.636Z,101613.90
2023-05-01T06:36:31.771Z,101617.02
2023-05-01T06:39:00.454Z,101621.08
2023-05-01T06:41:29.239Z,101621.61
2023-05-01T06:43:58.890Z,101626.16
2023-05-01T06:46:28.395Z,101627.53
2023-05-01T06:48:56.831Z,101633.95
2023-05-01T06:51:25.618Z,101631.48
2023-05-01T06:53:54.120Z,101632.89
2023-05-01T06:56:23.426Z,101635.65
2023-05-01T06:58:53.038Z,101634.58
2023-05-01T07:01:21.890Z,101631.91
2023-05-01T07:03:50.634Z,101635.56
2023-05-01T07:06:23.768Z,101636.22
2023-05-01T07:08:54.829Z,101631.80
2023-05-01T07:11:23.400Z,101624.71
2023-05-01T07:13:52.224Z,101629.05
2023-05-01T07:16:21.828Z,101626.75
2023-05-01T07:18:50.917Z,101627.45
2023-05-01T07:21:19.505Z,101635.64
2023-05-01T07:23:48.168Z,101628.45
2023-05-01T07:26:17.060Z,101624.75
2023-05-01T07:28:45.751Z,101637.71
2023-05-01T07:31:15.680Z,101630.45
2023-05-01T07:33:45.300Z,101631.48
2023-05-01T07:36:16.960Z,101639.33
2023-05-01T07:42:23.724Z,101643.23
2023-05-01T07:44:52.324Z,101646.58
2023-05-01T07:47:21.357Z,101639.42
2023-05-01T07:49:50.184Z,101645.19
2023-05-01T07:52:18.556Z,101643.44
2023-05-01T07:54:51.585Z,101637.80
2023-05-01T07:57:20.235Z,101637.04
2023-05-01T07:59:49.025Z,101640.16
2023-05-01T08:02:18.076Z,101650.24
2023-05-01T08:04:48.525Z,101656.05
2023-05-01T08:07:18.050Z,101657.11
2023-05-01T08:09:46.938Z,101666.15
2023-05-01T08:12:15.468Z,101678.05
2023-05-01T08:14:44.276Z,101665.30
2023-05-01T08:17:12.927Z,101663.21
2023-05-01T08:19:41.485Z,101661.09
2023-05-01T08:22:10.681Z,101663.55
2023-05-01T08:24:39.672Z,101666.34
2023-05-01T08:27:09.172Z,101671.20
2023-05-01T08:29:37.652Z,101663.45
2023-05-01T08:32:06.244Z,101668.84
2023-05-01T08:34:35.096Z,101671.88
2023-05-01T08:37:03.820Z,101670.45
2023-05-01T08:39:32.921Z,101672.65
2023-05-01T08:42:01.873Z,101684.20
2023-05-01T08:44:31.963Z,101685.48
2023-05-01T08:47:17.528Z,101671.34
2023-05-01T08:49:48.242Z,101681.48
2023-05-01T08:52:17.231Z,101679.54
2023-05-01T08:54:47.489Z,101680.52
2023-05-01T08:57:17.437Z,101678.22
2023-05-01T08:59:47.084Z,101688.33
2023-05-01T09:02:16.468Z,101683.77
2023-05-01T09:04:45.975Z,101685.88
2023-05-01T09:07:15.353Z,101678.79
2023-05-01T09:09:44.385Z,101686.86
2023-05-01T09:12:27.055Z,101690.55
2023-05-01T09:14:57.230Z,101682.05
2023-05-01T09:17:25.920Z,101680.64
2023-05-01T09:19:55.096Z,101682.45
2023-05-01T09:22:24.446Z,101678.79
2023-05-01T09:24:52.916Z,101678.30
2023-05-01T09:27:21.353Z,101677.23
2023-05-01T09:29:49.814Z,101672.09
2023-05-01T09:32:28.356Z,101674.80
2023-05-01T09:35:10.906Z,101675.48
2023-05-01T09:37:39.891Z,101680.78
2023-05-01T09:40:14.535Z,101688.90
2023-05-01T09:42:53.447Z,101679.42
2023-05-01T09:45:23.767Z,101682.60
2023-05-01T09:47:52.067Z,101670.38
2023-05-01T09:50:35.266Z,101672.42
2023-05-01T09:53:06.811Z,101681.48
2023-05-01T09:55:35.489Z,101673.09
2023-05-01T09:58:03.958Z,101675.05
2023-05-01T10:00:34.382Z,101671.27
2023-05-01T10:03:15.362Z,101674.50
2023-05-01T10:05:44.881Z,101678.65
2023-05-01T10:08:16.132Z,101683.19
2023-05-01T10:10:44.932Z,101682.84
2023-05-01T10:13:19.269Z,101670.43
2023-05-01T10:15:47.674Z,101671.58
2023-05-01T10:18:18.547Z,101669.66
2023-05-01T10:20:47.365Z,101675.47
2023-05-01T10:23:15.791Z,101671.27
2023-05-01T10:25:45.287Z,101670.02
2023-05-01T10:28:14.534Z,101673.87
2023-05-01T10:30:46.054Z,101674.61
2023-05-01T10:33:15.090Z,101677.71
2023-05-01T10:35:50.397Z,101672.04
2023-05-01T10:38:25.490Z,101668.05
2023-05-01T10:40:53.866Z,101668.70
2023-05-01T10:43:30.879Z,101677.36
2023-05-01T10:46:08.658Z,101682.44
2023-05-01T10:48:44.117Z,101682.39
2023-05-01T10:51:20.433Z,101669.73
2023-05-01T10:54:10.259Z,101668.89
2023-05-01T10:56:38.599Z,101671.80
2023-05-01T10:59:07.658Z,101674.45
2023-05-01T11:01:40.291Z,101677.44
2023-05-01T11:04:23.085Z,101673.46
2023-05-01T11:07:08.014Z,101670.02
2023-05-01T11:09:38.345Z,101667.09
2023-05-01T11:12:08.483Z,101668.58
2023-05-01T11:15:02.602Z,101666.83
2023-05-01T11:17:41.039Z,101663.80
2023-05-01T11:20:33.567Z,101669.42
2023-05-01T11:23:02.265Z,101654.41
2023-05-01T11:25:32.084Z,101652.00
2023-05-01T11:28:02.462Z,101654.36
2023-05-01T11:30:41.011Z,101659.92
2023-05-01T11:33:10.997Z,101662.71
2023-05-01T11:35:40.265Z,101661.43
2023-05-01T11:38:18.998Z,101655.75
2023-05-01T11:40:56.174Z,101653.70
2023-05-01T11:43:24.722Z,101650.07
2023-05-01T11:45:55.360Z,101650.25
2023-05-01T11:48:24.125Z,101650.73
2023-05-01T11:50:52.494Z,101646.22
2023-05-01T11:53:21.215Z,101647.60
2023-05-01T11:55:49.914Z,101641.80
2023-05-01T11:58:18.409Z,101647.59
2023-05-01T12:00:51.383Z,101636.62
2023-05-01T12:03:20.867Z,101644.88
2023-05-01T12:05:49.766Z,101643.40
2023-05-01T12:08:21.006Z,101634.71
2023-05-01T12:10:57.570Z,101640.79
2023-05-01T12:13:27.257Z,101634.92
2023-05-01T12:15:57.061Z,101628.24
2023-05-01T12:18:25.935Z,101628.36
2023-05-01T12:20:55.705Z,101626.52
2023-05-01T12:23:40.010Z,101625.44
2023-05-01T12:26:18.083Z,101625.07
2023-05-01T12:29:03.372Z,101617.25
2023-05-01T12:31:32.382Z,101613.95
2023-05-01T12:34:08.301Z,101617.31
2023-05-01T12:36:37.723Z,101612.39
2023-05-01T12:39:14.407Z,101615.55
2023-05-01T12:41:49.775Z,101614.48
2023-05-01T12:44:25.147Z,101619.13
2023-05-01T12:46:59.304Z,101614.80
2023-05-01T12:49:29.474Z,101616.45
2023-05-01T12:52:00.159Z,101611.06
2023-05-01T12:54:32.637Z,101614.39
2023-05-01T12:57:11.617Z,101612.58
2023-05-01T12:59:41.841Z,101619.80
2023-05-01T13:02:17.591Z,101609.77
2023-05-01T13:04:49.567Z,101614.70
2023-05-01T13:07:19.561Z,101611.83
2023-05-01T13:09:57.922Z,101606.90
2023-05-01T13:12:28.068Z,101611.35
2023-05-01T13:14:57.571Z,101613.34
2023-05-01T13:17:31.343Z,101611.30
2023-05-01T13:20:02.619Z,101618.05
2023-05-01T13:22:36.982Z,101609.23
2023-05-01T13:25:15.426Z,101613.85
2023-05-01T13:27:53.839Z,101619.55
2023-05-01T13:30:33.148Z,101614.45
2023-05-01T13:33:02.428Z,101608.83
2023-05-01T13:35:31.703Z,101610.38
2023-05-01T13:38:04.137Z,101614.30
2023-05-01T13:40:35.055Z,101617.11
2023-05-01T13:43:04.047Z,101618.39
2023-05-01T13:45:33.101Z,101619.64
2023-05-01T13:48:04.893Z,101620.30
2023-05-01T13:50:34.724Z,101614.36
2023-05-01T13:53:03.149Z,101612.11
2023-05-01T13:55:32.917Z,101612.36
2023-05-01T13:58:03.267Z,101617.80
2023-05-01T14:00:31.676Z,101617.80
2023-05-01T14:03:00.451Z,101617.23
2023-05-01T14:05:29.770Z,101612.82
2023-05-01T14:07:59.124Z,101617.47
2023-05-01T14:10:29.693Z,101614.34
2023-05-01T14:12:59.156Z,101613.81
2023-05-01T14:15:28.982Z,101614.88
2023-05-01T14:17:59.125Z,101614.77
2023-05-01T14:20:27.449Z,101614.58
2023-05-01T14:22:55.910Z,101608.07
2023-05-01T14:25:34.959Z,101613.62
2023-05-01T14:28:09.789Z,101621.02
2023-05-01T14:30:39.926Z,101618.34
2023-05-01T14:33:13.230Z,101616.70
2023-05-01T14:35:50.395Z,101627.20
2023-05-01T14:38:20.905Z,101625.15
2023-05-01T14:40:49.495Z,101627.29
2023-05-01T14:43:20.106Z,101622.97
2023-05-01T14:46:40.103Z,101623.45
2023-05-01T14:49:08.612Z,101624.34
2023-05-01T14:51:57.100Z,101619.91
2023-05-01T14:55:08.453Z,101619.80
2023-05-01T14:57:39.413Z,101621.06
2023-05-01T15:00:28.242Z,101620.21
2023-05-01T15:03:09.469Z,101615.65
2023-05-01T15:05:40.430Z,101618.45
2023-05-01T15:08:09.711Z,101618.07
2023-05-01T15:10:38.871Z,101616.64
2023-05-01T15:13:07.326Z,101615.64
2023-05-01T15:15:35.942Z,101614.21
2023-05-01T15:18:04.555Z,101608.59
2023-05-01T15:20:33.368Z,101610.77
2023-05-01T15:23:01.685Z,101606.98
2023-05-01T15:25:30.159Z,101605.02
2023-05-01T15:27:58.679Z,101607.94
2023-05-01T15:30:27.301Z,101611.77
2023-05-01T15:32:56.005Z,101612.77
2023-05-01T15:35:24.678Z,101612.73
2023-05-01T15:37:54.217Z,101610.54
2023-05-01T15:40:23.135Z,101609.07
2023-05-01T15:42:52.178Z,101611.70
2023-05-01T15:45:23.054Z,101612.24
2023-05-01T15:47:51.631Z,101614.23
2023-05-01T15:50:21.422Z,101613.08
2023-05-01T15:52:52.746Z,101609.26
2023-05-01T15:55:22.293Z,101609.86
2023-05-01T15:57:50.935Z,101614.50
2023-05-01T16:00:21.968Z,101615.50
2023-05-01T16:02:54.839Z,101617.92
2023-05-01T16:05:25.377Z,101617.64
2023-05-01T16:07:56.010Z,101616.81
2023-05-01T16:10:25.769Z,101614.06
2023-05-01T16:12:54.322Z,101613.05
2023-05-01T16:15:23.136Z,101616.61
2023-05-01T16:17:52.413Z,101616.10
2023-05-01T16:20:21.315Z,101621.63
2023-05-01T16:22:50.087Z,101623.88
2023-05-01T16:25:18.768Z,101627.43
2023-05-01T16:27:47.735Z,101628.02
2023-05-01T16:30:16.171Z,101626.84
2023-05-01T16:32:45.164Z,101628.18
2023-05-01T16:35:19.086Z,101628.14
2023-05-01T16:37:47.749Z,101626.98
2023-05-01T16:40:18.213Z,101627.13
2023-05-01T16:42:53.692Z,101630.86
2023-05-01T16:45:22.498Z,101630.27
2023-05-01T16:47:51.778Z,101633.73
2023-05-01T16:50:22.561Z,101637.95
2023-05-01T16:53:42.537Z,101637.45
2023-05-01T16:56:11.700Z,101645.16
2023-05-01T16:58:40.252Z,101642.32
2023-05-01T17:01:08.745Z,101643.02
2023-05-01T17:03:38.968Z,101647.41
2023-05-01T17:06:08.570Z,101647.92
2023-05-01T17:08:36.861Z,101650.21
2023-05-01T17:11:06.931Z,101648.14
2023-05-01T17:13:35.718Z,101655.56
2023-05-01T17:16:04.533Z,101658.20
2023-05-01T17:18:33.152Z,101660.80
2023-05-01T17:21:02.182Z,101664.10
2023-05-01T17:23:57.289Z,101669.33
2023-05-01T17:26:50.686Z,101673.73
2023-05-01T17:29:19.623Z,101674.36
2023-05-01T17:35:25.288Z,101681.19
2023-05-01T17:37:53.705Z,101685.49
2023-05-01T17:40:22.061Z,101690.21
2023-05-01T17:42:50.981Z,101692.14
2023-05-01T17:45:20.891Z,101696.12
2023-05-01T17:47:49.804Z,101698.72
2023-05-01T17:50:19.488Z,101701.67
2023-05-01T17:52:48.036Z,101709.35
2023-05-01T17:55:18.303Z,101711.77
2023-05-01T17:57:47.914Z,101719.40
2023-05-01T18:00:17.042Z,101719.86
2023-05-01T18:02:46.921Z,101723.79
2023-05-01T18:05:15.838Z,101724.91
2023-05-01T18:07:44.642Z,101727.78
2023-05-01T18:10:13.160Z,101730.84
2023-05-01T18:12:41.858Z,101732.80
2023-05-01T18:15:11.206Z,101736.17
2023-05-01T18:17:39.762Z,101739.04
2023-05-01T18:20:09.358Z,101743.63
2023-05-01T18:22:37.873Z,101748.04
2023-05-01T18:25:07.237Z,101747.91
2023-05-01T18:27:38.222Z,101748.80
2023-05-01T18:30:09.033Z,101756.01
2023-05-01T18:32:47.485Z,101757.77
2023-05-01T18:35:18.733Z,101759.18
2023-05-01T18:37:47.299Z,101764.43
2023-05-01T18:40:15.821Z,101766.89
2023-05-01T18:42:44.429Z,101766.90
2023-05-01T18:45:14.305Z,101772.28
2023-05-01T18:47:43.063Z,101775.41
2023-05-01T18:50:11.812Z,101775.75
2023-05-01T18:56:17.284Z,101775.91
2023-05-01T18:58:45.937Z,101783.39
2023-05-01T19:01:14.269Z,101781.27
2023-05-01T19:03:42.751Z,101790.11
2023-05-01T19:06:11.282Z,101795.83
2023-05-01T19:08:40.297Z,101802.92
2023-05-01T19:11:08.732Z,101804.44
2023-05-01T19:13:37.308Z,101805.23
2023-05-01T19:16:06.016Z,101808.65
2023-05-01T19:18:37.580Z,101806.84
2023-05-01T19:21:06.177Z,101809.56
2023-05-01T19:23:35.218Z,101809.48
2023-05-01T19:26:08.472Z,101808.19
2023-05-01T19:28:47.700Z,101808.13
2023-05-01T19:31:20.670Z,101816.06
2023-05-01T19:33:50.537Z,101816.04
2023-05-01T19:36:21.813Z,101816.54
2023-05-01T19:38:53.995Z,101819.64
2023-05-01T19:41:27.976Z,101816.96
2023-05-01T19:43:58.223Z,101817.77
2023-05-01T19:46:27.059Z,101818.91
2023-05-01T19:48:55.630Z,101816.61
2023-05-01T19:51:24.152Z,101822.14
2023-05-01T19:53:52.533Z,101823.10
2023-05-01T19:56:21.036Z,101822.00
2023-05-01T19:58:49.735Z,101827.33
2023-05-01T20:01:17.944Z,101832.48
2023-05-01T20:03:46.507Z,101831.16
2023-05-01T20:06:15.658Z,101832.64
2023-05-01T20:08:44.552Z,101834.64
2023-05-01T20:11:13.026Z,101838.04
2023-05-01T20:13:42.053Z,101839.70
2023-05-01T20:16:10.728Z,101842.77
2023-05-01T20:18:39.259Z,101847.56
2023-05-01T20:21:08.165Z,101855.50
2023-05-01T20:23:36.608Z,101853.36
2023-05-01T20:26:05.245Z,101859.91
2023-05-01T20:28:33.812Z,101859.84
2023-05-01T20:31:02.471Z,101862.17
2023-05-01T20:33:30.904Z,101864.69
2023-05-01T20:35:59.562Z,101864.90
2023-05-01T20:38:27.959Z,101870.70
2023-05-01T20:40:56.540Z,101873.48
2023-05-01T20:43:25.123Z,101875.98
2023-05-01T20:45:54.030Z,101875.29
2023-05-01T20:48:25.320Z,101878.92
2023-05-01T20:50:53.881Z,101879.19
2023-05-01T20:53:22.224Z,101879.44
2023-05-01T20:55:50.688Z,101881.98
2023-05-01T20:58:19.092Z,101882.58
2023-05-01T21:00:47.672Z,101882.27
2023-05-01T21:03:16.587Z,101881.67
2023-05-01T21:05:45.346Z,101879.83
2023-05-01T21:08:13.931Z,101879.17
2023-05-01T21:10:42.379Z,101882.68
2023-05-01T21:13:10.903Z,101880.81
2023-05-01T21:15:41.911Z,101882.09
2023-05-01T21:18:14.554Z,101888.56
2023-05-01T21:20:45.776Z,101888.65
2023-05-01T21:23:17.025Z,101892.20
2023-05-01T21:25:45.447Z,101894.02
2023-05-01T21:28:14.664Z,101897.63
2023-05-01T21:30:43.195Z,101902.14
2023-05-01T21:33:17.316Z,101906.46
2023-05-01T21:35:46.959Z,101909.57
2023-05-01T21:38:16.693Z,101914.20
2023-05-01T21:40:46.414Z,101916.73
2023-05-01T21:43:15.017Z,101920.63
2023-05-01T21:45:44.561Z,101925.23
2023-05-01T21:48:18.596Z,101925.27
2023-05-01T21:50:50.449Z,101925.16
2023-05-01T21:53:18.791Z,101924.67
2023-05-01T21:55:47.246Z,101924.73
2023-05-01T21:58:15.702Z,101922.36
2023-05-01T22:00:46.144Z,101921.63
2023-05-01T22:03:18.271Z,101924.00
2023-05-01T22:05:47.112Z,101924.83
2023-05-01T22:08:15.660Z,101923.72
2023-05-01T22:10:45.723Z,101926.23
2023-05-01T22:13:14.217Z,101929.29
2023-05-01T22:15:42.797Z,101926.74
2023-05-01T22:18:11.307Z,101931.80
2023-05-01T22:20:39.906Z,101929.73
2023-05-01T22:23:08.394Z,101933.03
2023-05-01T22:25:37.186Z,101934.39
2023-05-01T22:28:06.323Z,101929.86
2023-05-01T22:30:35.331Z,101927.25
2023-05-01T22:33:04.071Z,101925.17
2023-05-01T22:35:32.535Z,101925.02
2023-05-01T22:38:01.070Z,101925.40
2023-05-01T22:40:29.549Z,101929.64
2023-05-01T22:42:58.432Z,101926.92
2023-05-01T22:45:27.514Z,101927.21
2023-05-01T22:47:56.524Z,101926.98
2023-05-01T22:50:25.154Z,101927.76
2023-05-01T22:52:53.746Z,101929.61
2023-05-01T22:55:22.536Z,101929.04
2023-05-01T22:57:51.319Z,101930.40
2023-05-01T23:00:19.866Z,101928.41
2023-05-01T23:02:48.289Z,101928.42
2023-05-01T23:05:17.626Z,101927.35
2023-05-01T23:07:46.274Z,101926.37
2023-05-01T23:10:15.702Z,101926.89
2023-05-01T23:12:45.337Z,101929.85
2023-05-01T23:15:17.182Z,101931.64
2023-05-01T23:17:46.420Z,101930.71
2023-05-01T23:20:22.954Z,101927.77
2023-05-01T23:22:51.826Z,101929.81
2023-05-01T23:25:26.280Z,101929.55
2023-05-01T23:27:56.936Z,101929.27
2023-05-01T23:30:25.502Z,101928.77
2023-05-01T23:32:58.993Z,101927.73
2023-05-01T23:35:27.499Z,101926.48
2023-05-01T23:37:56.283Z,101928.27
2023-05-01T23:40:25.174Z,101929.73
2023-05-01T23:42:55.344Z,101928.89
2023-05-01T23:45:23.912Z,101928.36
2023-05-01T23:47:52.489Z,101927.34
2023-05-01T23:50:21.715Z,101925.90
2023-05-01T23:52:50.532Z,101925.71
2023-05-01T23:55:20.448Z,101916.67
2023-05-01T23:57:48.766Z,101915.73
